createdAt,value
2023-04-16T00:00:18.900Z,1.40
2023-04-16T00:10:20.413Z,1.45
2023-04-16T00:20:21.933Z,1.87
2023-04-16T00:30:23.458Z,1.60
2023-04-16T00:40:27.756Z,2.40
2023-04-16T00:50:29.679Z,2.33
2023-04-16T01:00:31.168Z,2.33
2023-04-16T01:10:32.665Z,2.20
2023-04-16T01:20:37.182Z,1.90
2023-04-16T01:30:38.691Z,2.50
2023-04-16T01:40:40.180Z,2.83
2023-04-16T01:50:41.674Z,3.00
2023-04-16T02:00:43.300Z,2.43
2023-04-16T02:10:49.304Z,2.47
2023-04-16T02:20:50.777Z,2.73
2023-04-16T02:30:52.259Z,2.67
2023-04-16T02:40:53.738Z,2.95
2023-04-16T02:50:55.156Z,2.73
2023-04-16T03:00:56.691Z,2.80
2023-04-16T03:10:58.187Z,2.90
2023-04-16T03:20:59.655Z,3.30
2023-04-16T03:31:01.142Z,3.08
2023-04-16T03:41:02.658Z,2.70
2023-04-16T03:51:04.403Z,2.70
2023-04-16T04:01:05.859Z,3.27
2023-04-16T04:11:07.387Z,2.60
2023-04-16T04:21:09.335Z,2.55
2023-04-16T04:31:10.857Z,2.50
2023-04-16T04:41:12.371Z,2.40
2023-04-16T04:51:13.835Z,2.70
2023-04-16T05:01:15.316Z,2.90
2023-04-16T05:11:16.819Z,2.63
2023-04-16T05:21:18.319Z,3.17
2023-04-16T05:31:20.077Z,2.70
2023-04-16T05:41:21.659Z,3.40
2023-04-16T05:51:23.206Z,3.80
2023-04-16T06:01:25.414Z,4.90
2023-04-16T06:11:26.858Z,4.03
2023-04-16T06:21:28.899Z,4.37
2023-04-16T06:31:30.878Z,3.90
2023-04-16T06:41:32.455Z,5.00
2023-04-16T06:51:34.488Z,4.57
2023-04-16T07:01:35.976Z,4.47
2023-04-16T07:11:37.678Z,4.90
2023-04-16T07:21:41.614Z,5.17
2023-04-16T07:31:43.149Z,5.43
2023-04-16T07:41:44.667Z,5.22
2023-04-16T07:51:46.993Z,5.50
2023-04-16T08:01:48.746Z,4.33
2023-04-16T08:11:50.345Z,2.77
2023-04-16T08:21:51.852Z,1.30
2023-04-16T08:31:54.222Z,2.03
2023-04-16T08:41:56.965Z,2.67
2023-04-16T08:51:58.510Z,2.57
2023-04-16T09:02:00.820Z,3.30
2023-04-16T09:12:02.707Z,3.47
2023-04-16T09:22:04.204Z,2.05
2023-04-16T09:32:08.236Z,2.57
2023-04-16T09:42:10.876Z,1.83
2023-04-16T09:52:16.600Z,1.20
2023-04-16T10:02:18.142Z,1.17
2023-04-16T10:12:20.476Z,2.28
2023-04-16T10:22:21.960Z,1.90
2023-04-16T10:32:25.872Z,2.07
2023-04-16T10:42:27.507Z,2.53
2023-04-16T10:52:29.425Z,2.17
2023-04-16T11:02:31.097Z,2.15
2023-04-16T11:12:43.460Z,1.30
2023-04-16T11:22:45.146Z,0.90
2023-04-16T11:32:46.637Z,0.60
2023-04-16T11:42:48.120Z,0.60
2023-04-16T11:52:51.198Z,0.68
2023-04-16T12:02:54.177Z,0.70
2023-04-16T12:13:18.138Z,0.37
2023-04-16T12:23:27.665Z,0.70
2023-04-16T12:33:29.325Z,0.80
2023-04-16T12:43:30.869Z,0.82
2023-04-16T12:53:32.427Z,0.70
2023-04-16T13:03:34.025Z,0.90
2023-04-16T13:13:35.569Z,0.80
2023-04-16T13:23:37.080Z,1.20
2023-04-16T13:33:38.592Z,1.02
2023-04-16T13:43:40.065Z,0.90
2023-04-16T13:53:41.726Z,0.70
2023-04-16T14:03:43.370Z,0.80
2023-04-16T14:13:44.916Z,0.30
2023-04-16T14:23:46.416Z,1.00
2023-04-16T14:33:47.859Z,0.43
2023-04-16T14:43:49.377Z,0.50
2023-04-16T14:53:50.931Z,0.40
2023-04-16T15:03:52.515Z,0.60
2023-04-16T15:13:54.305Z,0.60
2023-04-16T15:23:55.804Z,0.43
2023-04-16T15:33:57.340Z,0.50
2023-04-16T15:43:58.873Z,0.50
2023-04-16T15:54:00.409Z,0.40
2023-04-16T16:04:02.161Z,0.30
2023-04-16T16:14:03.970Z,0.20
2023-04-16T16:24:05.747Z,0.13
2023-04-16T16:34:07.291Z,0.20
2023-04-16T16:44:09.418Z,0.10
2023-04-16T16:54:11.062Z,0.10
2023-04-16T17:04:12.689Z,0.20
2023-04-16T17:14:14.246Z,0.50
2023-04-16T17:24:15.793Z,0.20
2023-04-16T17:34:17.321Z,0.10
2023-04-16T17:44:18.890Z,0.30
2023-04-16T17:54:20.434Z,0.50
2023-04-16T18:04:21.976Z,0.40
2023-04-16T18:14:23.555Z,0.40
2023-04-16T18:24:25.115Z,0.40
2023-04-16T18:34:26.683Z,0.40
2023-04-16T18:44:28.224Z,0.60
2023-04-16T18:54:29.769Z,0.30
2023-04-16T19:04:31.353Z,0.80
2023-04-16T19:14:32.963Z,0.70
2023-04-16T19:24:34.446Z,0.77
2023-04-16T19:34:35.955Z,0.70
2023-04-16T19:44:37.459Z,0.33
2023-04-16T19:54:38.954Z,0.40
2023-04-16T20:04:40.484Z,0.60
2023-04-16T20:14:42.031Z,0.60
2023-04-16T20:24:44.494Z,0.77
2023-04-16T20:34:47.256Z,0.90
2023-04-16T20:44:49.369Z,1.93
2023-04-16T20:54:50.865Z,1.03
2023-04-16T21:04:52.534Z,1.27
2023-04-16T21:14:54.062Z,0.97
2023-04-16T21:24:55.571Z,1.00
2023-04-16T21:34:57.018Z,1.33
2023-04-16T21:44:58.750Z,1.10
2023-04-16T21:55:00.547Z,0.98
2023-04-16T22:05:02.107Z,1.23
2023-04-16T22:15:05.444Z,1.67
2023-04-16T22:25:07.281Z,1.30
2023-04-16T22:35:09.082Z,1.57
2023-04-16T22:45:11.966Z,1.50
2023-04-16T22:55:13.448Z,1.87
2023-04-16T23:05:14.942Z,1.50
2023-04-16T23:15:16.468Z,1.40
2023-04-16T23:25:18.152Z,1.77
2023-04-16T23:35:19.662Z,1.65
2023-04-16T23:45:21.151Z,1.97
2023-04-16T23:55:22.795Z,2.30
